createdAt,value
2018-04-17T00:02:03.859Z,5.37
2018-04-17T00:04:34.852Z,4.90
2018-04-17T00:07:05.313Z,10.90
2018-04-17T00:09:36.764Z,5.03
2018-04-17T00:12:08.187Z,4.27
2018-04-17T00:14:39.082Z,5.77
2018-04-17T00:17:09.018Z,5.20
2018-04-17T00:19:40.286Z,4.87
2018-04-17T00:22:11.892Z,5.23
2018-04-17T00:24:41.696Z,5.70
2018-04-17T00:27:13.054Z,4.93
2018-04-17T00:29:43.298Z,5.20
2018-04-17T00:32:13.597Z,4.70
2018-04-17T00:34:43.936Z,6.83
2018-04-17T00:37:13.987Z,5.50
2018-04-17T00:39:43.984Z,5.90
2018-04-17T00:42:13.782Z,5.77
2018-04-17T00:44:45.311Z,6.17
2018-04-17T00:47:15.532Z,6.07
2018-04-17T00:49:45.573Z,5.23
2018-04-17T00:52:15.848Z,5.80
2018-04-17T00:54:47.036Z,6.93
2018-04-17T00:57:18.597Z,7.00
2018-04-17T00:59:48.816Z,11.47
2018-04-17T01:02:19.167Z,8.67
2018-04-17T01:04:50.119Z,29.47
2018-04-17T01:07:20.562Z,20.97
2018-04-17T01:09:51.083Z,20.10
2018-04-17T01:12:20.946Z,22.27
2018-04-17T01:14:50.936Z,28.80
2018-04-17T01:17:22.119Z,16.30
2018-04-17T01:19:52.598Z,15.00
2018-04-17T01:22:23.562Z,34.50
2018-04-17T01:24:54.016Z,21.63
2018-04-17T01:27:24.099Z,28.80
2018-04-17T01:29:54.157Z,18.97
2018-04-17T01:32:24.483Z,21.07
2018-04-17T01:34:56.185Z,20.80
2018-04-17T01:37:27.219Z,15.00
2018-04-17T01:39:58.389Z,15.10
2018-04-17T01:42:29.038Z,12.73
2018-04-17T01:44:59.385Z,18.20
2018-04-17T01:47:29.779Z,15.07
2018-04-17T01:50:00.094Z,23.00
2018-04-17T01:52:30.444Z,17.42
2018-04-17T01:55:00.914Z,13.57
2018-04-17T01:57:31.524Z,19.60
2018-04-17T02:00:01.767Z,13.87
2018-04-17T02:02:31.783Z,15.80
2018-04-17T02:05:02.070Z,19.60
2018-04-17T02:07:32.106Z,16.37
2018-04-17T02:10:02.274Z,18.43
2018-04-17T02:12:35.183Z,15.23
2018-04-17T02:15:05.326Z,20.67
2018-04-17T02:17:35.440Z,18.67
2018-04-17T02:20:05.452Z,23.40
2018-04-17T02:22:35.891Z,21.37
2018-04-17T02:25:06.486Z,20.63
2018-04-17T02:27:36.780Z,20.83
2018-04-17T02:30:07.495Z,24.07
2018-04-17T02:32:37.620Z,19.47
2018-04-17T02:35:07.704Z,21.93
2018-04-17T02:37:38.265Z,17.83
2018-04-17T02:40:08.952Z,14.13
2018-04-17T02:42:39.287Z,14.53
2018-04-17T02:45:09.364Z,12.80
2018-04-17T02:47:40.153Z,15.50
2018-04-17T02:50:10.362Z,11.93
2018-04-17T02:52:40.557Z,15.83
2018-04-17T02:55:10.869Z,13.33
2018-04-17T02:57:41.949Z,11.70
2018-04-17T03:00:12.268Z,12.40
2018-04-17T03:02:44.001Z,12.10
2018-04-17T03:05:13.793Z,12.10
2018-04-17T03:07:44.388Z,12.57
2018-04-17T03:10:14.670Z,13.33
2018-04-17T03:12:44.886Z,12.57
2018-04-17T03:15:14.769Z,14.70
2018-04-17T03:17:45.030Z,12.03
2018-04-17T03:20:14.828Z,12.27
2018-04-17T03:22:45.172Z,11.80
2018-04-17T03:25:15.770Z,12.90
2018-04-17T03:27:46.327Z,12.63
2018-04-17T03:30:17.012Z,12.37
2018-04-17T03:32:46.848Z,13.60
2018-04-17T03:35:17.412Z,11.20
2018-04-17T03:37:48.500Z,13.47
2018-04-17T03:40:18.461Z,13.90
2018-04-17T03:42:49.004Z,20.50
2018-04-17T03:45:19.248Z,34.10
2018-04-17T03:47:49.434Z,19.00
2018-04-17T03:50:20.294Z,23.67
2018-04-17T03:52:50.599Z,23.30
2018-04-17T03:55:21.133Z,19.50
2018-04-17T03:57:51.235Z,24.23
2018-04-17T04:00:21.518Z,20.73
2018-04-17T04:02:52.015Z,24.20
2018-04-17T04:05:22.511Z,25.57
2018-04-17T04:07:52.763Z,25.10
2018-04-17T04:10:23.056Z,28.80
2018-04-17T04:12:54.041Z,23.10
2018-04-17T04:15:24.571Z,28.10
2018-04-17T04:18:07.511Z,23.53
2018-04-17T04:20:49.517Z,27.53
2018-04-17T04:23:30.312Z,26.70
2018-04-17T04:26:12.648Z,24.33
2018-04-17T04:28:42.913Z,31.30
2018-04-17T04:31:15.888Z,23.50
2018-04-17T04:33:46.083Z,25.07
2018-04-17T04:36:16.500Z,24.30
2018-04-17T04:38:46.558Z,21.53
2018-04-17T04:41:16.358Z,21.37
2018-04-17T04:43:46.563Z,23.40
2018-04-17T04:46:16.553Z,22.03
2018-04-17T04:48:46.886Z,21.20
2018-04-17T04:51:16.737Z,22.23
2018-04-17T04:53:47.027Z,19.03
2018-04-17T04:56:17.416Z,18.57
2018-04-17T04:58:48.239Z,20.10
2018-04-17T05:01:18.687Z,23.60
2018-04-17T05:03:50.071Z,20.20
2018-04-17T05:06:20.117Z,17.90
2018-04-17T05:08:50.497Z,18.83
2018-04-17T05:11:21.007Z,16.63
2018-04-17T05:13:52.160Z,18.37
2018-04-17T05:16:23.447Z,17.83
2018-04-17T05:18:53.680Z,19.00
2018-04-17T05:21:23.809Z,17.13
2018-04-17T05:23:54.256Z,16.20
2018-04-17T05:26:24.595Z,16.30
2018-04-17T05:28:55.676Z,18.00
2018-04-17T05:31:25.873Z,17.87
2018-04-17T05:33:56.144Z,16.40
2018-04-17T05:36:26.628Z,16.87
2018-04-17T05:38:57.108Z,17.00
2018-04-17T05:41:27.668Z,16.80
2018-04-17T05:43:58.978Z,17.70
2018-04-17T05:46:28.930Z,19.17
2018-04-17T05:49:00.014Z,16.67
2018-04-17T05:51:30.417Z,16.87
2018-04-17T05:54:00.675Z,16.97
2018-04-17T05:56:30.956Z,16.83
2018-04-17T05:59:01.210Z,17.57
2018-04-17T06:01:32.780Z,15.97
2018-04-17T06:04:03.204Z,15.87
2018-04-17T06:06:33.597Z,17.70
2018-04-17T06:09:03.579Z,16.00
2018-04-17T06:11:34.868Z,16.13
2018-04-17T06:14:05.008Z,16.97
2018-04-17T06:16:35.214Z,16.43
2018-04-17T06:19:05.155Z,15.47
2018-04-17T06:21:35.096Z,16.58
2018-04-17T06:24:05.728Z,16.93
2018-04-17T06:26:36.929Z,16.47
2018-04-17T06:29:07.166Z,17.63
2018-04-17T06:31:37.625Z,16.77
2018-04-17T06:34:08.706Z,16.40
2018-04-17T06:36:39.008Z,17.40
2018-04-17T06:39:09.063Z,16.15
2018-04-17T06:41:39.238Z,18.07
2018-04-17T06:44:10.314Z,16.50
2018-04-17T06:46:40.419Z,15.03
2018-04-17T06:49:10.757Z,15.20
2018-04-17T06:51:40.973Z,16.67
2018-04-17T06:54:11.579Z,15.93
2018-04-17T06:56:41.984Z,15.90
2018-04-17T06:59:12.522Z,14.47
2018-04-17T07:01:44.300Z,16.50
2018-04-17T07:04:14.711Z,15.40
2018-04-17T07:06:45.833Z,15.77
2018-04-17T07:09:15.961Z,16.43
2018-04-17T07:11:46.842Z,17.57
2018-04-17T07:14:17.005Z,16.70
2018-04-17T07:16:48.004Z,16.37
2018-04-17T07:19:19.606Z,16.03
2018-04-17T07:21:50.218Z,16.10
2018-04-17T07:24:20.596Z,16.60
2018-04-17T07:26:51.118Z,16.50
2018-04-17T07:29:22.264Z,16.60
2018-04-17T07:31:52.688Z,17.30
2018-04-17T07:34:23.851Z,16.20
2018-04-17T07:36:54.232Z,16.10
2018-04-17T07:39:25.351Z,16.27
2018-04-17T07:41:55.702Z,16.33
2018-04-17T07:44:25.943Z,15.37
2018-04-17T07:47:07.635Z,17.77
2018-04-17T07:49:39.801Z,15.63
2018-04-17T07:52:12.887Z,17.10
2018-04-17T07:54:44.088Z,16.70
2018-04-17T07:57:14.519Z,16.70
2018-04-17T07:59:44.810Z,15.83
2018-04-17T08:02:15.139Z,15.50
2018-04-17T08:04:45.391Z,15.17
2018-04-17T08:07:15.747Z,15.83
2018-04-17T08:09:46.797Z,15.30
2018-04-17T08:12:18.510Z,13.60
2018-04-17T08:14:48.816Z,15.23
2018-04-17T08:17:19.184Z,14.20
2018-04-17T08:19:49.283Z,12.90
2018-04-17T08:22:22.708Z,13.50
2018-04-17T08:24:53.325Z,14.63
2018-04-17T08:27:23.827Z,13.13
2018-04-17T08:29:53.961Z,12.77
2018-04-17T08:32:23.828Z,13.43
2018-04-17T08:34:53.623Z,13.63
2018-04-17T08:37:24.198Z,13.00
2018-04-17T08:39:53.985Z,12.10
2018-04-17T08:42:24.548Z,14.40
2018-04-17T08:44:54.757Z,12.40
2018-04-17T08:47:25.445Z,12.97
2018-04-17T08:49:56.560Z,12.77
2018-04-17T08:52:26.848Z,13.03
2018-04-17T08:54:57.308Z,13.60
2018-04-17T08:57:28.080Z,11.60
2018-04-17T08:59:58.653Z,12.20
2018-04-17T09:02:28.705Z,11.67
2018-04-17T09:04:59.585Z,12.67
2018-04-17T09:07:29.546Z,12.30
2018-04-17T09:09:59.376Z,12.70
2018-04-17T09:12:31.198Z,12.18
2018-04-17T09:15:01.344Z,12.87
2018-04-17T09:17:37.557Z,11.90
2018-04-17T09:20:08.210Z,10.60
2018-04-17T09:22:38.101Z,12.93
2018-04-17T09:25:08.586Z,11.70
2018-04-17T09:27:38.828Z,11.57
2018-04-17T09:30:09.858Z,11.93
2018-04-17T09:32:40.689Z,11.10
2018-04-17T09:35:11.571Z,11.80
2018-04-17T09:37:41.959Z,11.97
2018-04-17T09:40:13.165Z,10.40
2018-04-17T09:42:43.743Z,11.97
2018-04-17T09:45:15.502Z,10.27
2018-04-17T09:47:46.591Z,11.83
2018-04-17T09:50:16.895Z,11.87
2018-04-17T09:52:47.167Z,10.77
2018-04-17T09:55:18.106Z,11.30
2018-04-17T09:57:48.911Z,10.63
2018-04-17T10:00:19.507Z,10.90
2018-04-17T10:02:49.837Z,10.50
2018-04-17T10:05:20.086Z,10.60
2018-04-17T10:07:51.124Z,10.67
2018-04-17T10:10:22.190Z,10.30
2018-04-17T10:12:52.589Z,12.10
2018-04-17T10:15:22.444Z,11.33
2018-04-17T10:17:55.093Z,10.40
2018-04-17T10:20:25.298Z,10.67
2018-04-17T10:22:55.297Z,19.03
2018-04-17T10:25:25.633Z,12.60
2018-04-17T10:27:55.971Z,11.97
2018-04-17T10:30:26.031Z,18.13
2018-04-17T10:32:56.902Z,11.20
2018-04-17T10:35:27.163Z,16.13
2018-04-17T10:37:57.164Z,12.27
2018-04-17T10:40:27.296Z,10.73
2018-04-17T10:42:58.470Z,10.40
2018-04-17T10:45:29.761Z,11.77
2018-04-17T10:48:00.097Z,12.37
2018-04-17T10:50:30.430Z,11.47
2018-04-17T10:53:01.004Z,12.43
2018-04-17T10:55:31.628Z,11.38
2018-04-17T10:58:02.236Z,12.77
2018-04-17T11:00:32.065Z,14.50
2018-04-17T11:03:03.071Z,11.83
2018-04-17T11:05:33.198Z,13.90
2018-04-17T11:08:03.390Z,11.10
2018-04-17T11:10:33.644Z,12.87
2018-04-17T11:13:03.941Z,11.47
2018-04-17T11:15:34.333Z,11.90
2018-04-17T11:18:06.472Z,13.10
2018-04-17T11:20:36.980Z,15.13
2018-04-17T11:23:07.443Z,13.73
2018-04-17T11:25:38.802Z,12.20
2018-04-17T11:28:09.843Z,12.53
2018-04-17T11:30:40.864Z,15.27
2018-04-17T11:33:10.893Z,14.87
2018-04-17T11:35:41.830Z,13.90
2018-04-17T11:38:13.210Z,11.30
2018-04-17T11:40:43.545Z,13.67
2018-04-17T11:43:13.669Z,12.80
2018-04-17T11:45:43.874Z,13.10
2018-04-17T11:48:15.198Z,12.13
2018-04-17T11:50:46.160Z,13.07
2018-04-17T11:53:16.124Z,12.60
2018-04-17T11:55:46.285Z,16.20
2018-04-17T11:58:17.536Z,12.37
2018-04-17T12:00:47.842Z,12.53
2018-04-17T12:03:18.988Z,13.00
2018-04-17T12:05:49.827Z,14.93
2018-04-17T12:08:20.533Z,12.63
2018-04-17T12:10:50.800Z,19.93
2018-04-17T12:13:21.311Z,15.93
2018-04-17T12:15:52.201Z,15.70
2018-04-17T12:18:22.414Z,18.00
2018-04-17T12:20:52.821Z,15.63
2018-04-17T12:23:22.991Z,11.93
2018-04-17T12:25:53.538Z,14.27
2018-04-17T12:28:25.171Z,13.43
2018-04-17T12:30:55.565Z,16.67
2018-04-17T12:33:25.599Z,13.47
2018-04-17T12:35:57.347Z,18.57
2018-04-17T12:38:27.538Z,12.20
2018-04-17T12:40:57.909Z,14.33
2018-04-17T12:43:28.878Z,12.60
2018-04-17T12:45:59.956Z,17.23
2018-04-17T12:48:30.314Z,18.63
2018-04-17T12:51:00.115Z,11.63
2018-04-17T12:53:30.173Z,19.27
2018-04-17T12:56:01.212Z,11.23
2018-04-17T12:58:32.204Z,12.13
2018-04-17T13:01:02.133Z,13.63
2018-04-17T13:03:32.270Z,13.53
2018-04-17T13:06:02.207Z,12.17
2018-04-17T13:08:32.668Z,13.60
2018-04-17T13:11:02.638Z,14.60
2018-04-17T13:13:32.995Z,14.85
2018-04-17T13:16:03.150Z,12.67
2018-04-17T13:18:33.987Z,12.97
2018-04-17T13:21:04.417Z,11.90
2018-04-17T13:23:34.820Z,15.53
2018-04-17T13:26:05.617Z,13.93
2018-04-17T13:28:36.778Z,18.62
2018-04-17T13:31:07.824Z,16.60
2018-04-17T13:33:38.314Z,12.10
2018-04-17T13:36:09.406Z,13.70
2018-04-17T13:38:39.780Z,18.08
2018-04-17T13:41:11.588Z,13.03
2018-04-17T13:43:41.938Z,13.88
2018-04-17T13:46:11.985Z,13.53
2018-04-17T13:48:42.651Z,14.90
2018-04-17T13:51:12.598Z,12.83
2018-04-17T13:53:42.922Z,13.77
2018-04-17T13:56:13.192Z,15.57
2018-04-17T13:58:43.876Z,14.60
2018-04-17T14:01:14.364Z,14.30
2018-04-17T14:03:45.186Z,14.13
2018-04-17T14:06:16.389Z,16.10
2018-04-17T14:08:46.695Z,13.97
2018-04-17T14:11:17.336Z,15.53
2018-04-17T14:13:47.455Z,15.80
2018-04-17T14:16:17.935Z,18.53
2018-04-17T14:18:48.314Z,18.90
2018-04-17T14:21:18.856Z,18.10
2018-04-17T14:23:49.070Z,15.03
2018-04-17T14:26:19.086Z,12.77
2018-04-17T14:28:49.961Z,12.50
2018-04-17T14:31:20.240Z,13.90
2018-04-17T14:33:50.579Z,12.68
2018-04-17T14:36:21.098Z,13.55
2018-04-17T14:38:51.552Z,13.87
2018-04-17T14:41:22.037Z,14.23
2018-04-17T14:43:52.459Z,16.37
2018-04-17T14:46:22.990Z,13.63
2018-04-17T14:48:53.256Z,13.98
2018-04-17T14:51:24.406Z,13.55
2018-04-17T14:53:54.811Z,25.96
2018-04-17T14:56:25.115Z,19.83
2018-04-17T14:58:56.224Z,11.27
2018-04-17T15:01:27.433Z,12.80
2018-04-17T15:03:58.181Z,11.00
2018-04-17T15:06:30.429Z,11.90
2018-04-17T15:09:00.396Z,10.15
2018-04-17T15:11:30.840Z,10.15
2018-04-17T15:14:01.327Z,8.75
2018-04-17T15:16:31.506Z,11.67
2018-04-17T15:19:01.255Z,9.98
2018-04-17T15:21:33.459Z,8.97
2018-04-17T15:24:03.703Z,12.25
2018-04-17T15:26:34.199Z,10.43
2018-04-17T15:29:04.884Z,8.90
2018-04-17T15:31:37.412Z,8.75
2018-04-17T15:34:08.248Z,12.93
2018-04-17T15:36:38.824Z,9.48
2018-04-17T15:39:08.960Z,9.20
2018-04-17T15:41:38.981Z,8.60
2018-04-17T15:46:44.594Z,7.90
2018-04-17T15:49:15.556Z,9.08
2018-04-17T15:51:45.447Z,11.22
2018-04-17T15:54:16.204Z,9.00
2018-04-17T15:56:46.460Z,8.00
2018-04-17T15:59:16.841Z,7.90
2018-04-17T16:01:47.249Z,8.43
2018-04-17T16:04:17.384Z,9.43
2018-04-17T16:06:47.649Z,8.27
2018-04-17T16:09:17.806Z,10.25
2018-04-17T16:11:48.324Z,7.50
2018-04-17T16:14:19.429Z,9.52
2018-04-17T16:16:49.253Z,8.00
2018-04-17T16:19:19.280Z,7.57
2018-04-17T16:21:49.656Z,7.37
2018-04-17T16:27:03.679Z,6.97
2018-04-17T16:29:34.324Z,8.70
2018-04-17T16:32:05.453Z,9.20
2018-04-17T16:34:36.547Z,8.57
2018-04-17T16:37:06.806Z,7.37
2018-04-17T16:39:37.181Z,8.00
2018-04-17T16:42:07.591Z,11.90
2018-04-17T16:44:37.580Z,7.43
2018-04-17T16:47:08.827Z,6.93
2018-04-17T16:49:39.688Z,7.63
2018-04-17T16:52:09.733Z,7.25
2018-04-17T16:54:39.749Z,8.00
2018-04-17T16:57:09.982Z,6.78
2018-04-17T16:59:40.337Z,7.22
2018-04-17T17:02:10.934Z,8.60
2018-04-17T17:04:41.244Z,7.15
2018-04-17T17:07:11.689Z,7.20
2018-04-17T17:09:41.878Z,9.75
2018-04-17T17:12:12.218Z,6.57
2018-04-17T17:14:42.305Z,7.00
2018-04-17T17:17:13.328Z,7.73
2018-04-17T17:19:45.029Z,7.30
2018-04-17T17:22:15.472Z,7.60
2018-04-17T17:24:45.481Z,6.60
2018-04-17T17:27:16.627Z,7.70
2018-04-17T17:29:46.457Z,7.60
2018-04-17T17:32:16.266Z,8.30
2018-04-17T17:34:46.670Z,7.33
2018-04-17T17:37:16.690Z,7.93
2018-04-17T17:39:47.222Z,6.17
2018-04-17T17:42:17.670Z,7.20
2018-04-17T17:44:48.116Z,7.97
2018-04-17T17:47:20.032Z,6.70
2018-04-17T17:49:50.352Z,6.68
2018-04-17T17:52:20.279Z,9.23
2018-04-17T17:54:50.365Z,6.87
2018-04-17T17:57:20.731Z,6.13
2018-04-17T17:59:50.730Z,6.53
2018-04-17T18:02:22.041Z,7.93
2018-04-17T18:04:53.006Z,7.20
2018-04-17T18:07:23.523Z,6.77
2018-04-17T18:09:53.981Z,6.62
2018-04-17T18:12:23.811Z,7.20
2018-04-17T18:14:53.625Z,6.43
2018-04-17T18:17:24.094Z,6.87
2018-04-17T18:19:55.093Z,7.80
2018-04-17T18:22:25.491Z,7.07
2018-04-17T18:24:55.891Z,8.90
2018-04-17T18:27:27.157Z,6.93
2018-04-17T18:29:56.980Z,6.12
2018-04-17T18:32:27.149Z,7.90
2018-04-17T18:34:57.630Z,8.73
2018-04-17T18:37:27.969Z,6.00
2018-04-17T18:39:58.237Z,6.75
2018-04-17T18:42:29.205Z,6.27
2018-04-17T18:44:59.607Z,6.85
2018-04-17T18:47:30.579Z,11.77
2018-04-17T18:50:00.891Z,5.23
2018-04-17T18:52:31.214Z,7.07
2018-04-17T18:55:01.424Z,7.80
2018-04-17T18:57:31.379Z,4.97
2018-04-17T19:00:01.575Z,6.90
2018-04-17T19:02:31.667Z,6.47
2018-04-17T19:05:02.839Z,6.68
2018-04-17T19:07:32.937Z,6.43
2018-04-17T19:10:03.892Z,8.00
2018-04-17T19:12:34.116Z,6.47
2018-04-17T19:15:04.131Z,5.93
2018-04-17T19:17:34.452Z,5.55
2018-04-17T19:20:05.604Z,10.20
2018-04-17T19:22:35.736Z,6.00
2018-04-17T19:25:06.071Z,5.90
2018-04-17T19:27:37.116Z,7.27
2018-04-17T19:30:07.881Z,5.97
2018-04-17T19:32:37.876Z,5.77
2018-04-17T19:35:07.958Z,6.10
2018-04-17T19:37:38.048Z,7.10
2018-04-17T19:40:08.347Z,5.55
2018-04-17T19:42:39.080Z,7.73
2018-04-17T19:45:10.194Z,6.07
2018-04-17T19:47:40.124Z,5.23
2018-04-17T19:50:10.511Z,5.57
2018-04-17T19:52:40.717Z,5.20
2018-04-17T19:55:10.953Z,5.77
2018-04-17T19:57:41.572Z,6.17
2018-04-17T20:00:11.996Z,6.27
2018-04-17T20:02:44.078Z,6.60
2018-04-17T20:05:14.275Z,6.40
2018-04-17T20:07:45.290Z,5.60
2018-04-17T20:10:16.600Z,7.00
2018-04-17T20:12:46.804Z,5.57
2018-04-17T20:15:17.105Z,6.27
2018-04-17T20:17:47.621Z,6.80
2018-04-17T20:20:18.058Z,5.63
2018-04-17T20:22:49.288Z,5.90
2018-04-17T20:25:19.453Z,6.30
2018-04-17T20:27:50.514Z,5.17
2018-04-17T20:30:20.895Z,5.37
2018-04-17T20:32:52.879Z,5.27
2018-04-17T20:35:23.385Z,5.80
2018-04-17T20:37:54.632Z,5.73
2018-04-17T20:40:25.887Z,5.63
2018-04-17T20:42:57.047Z,6.27
2018-04-17T20:45:27.341Z,6.73
2018-04-17T20:47:58.625Z,5.73
2018-04-17T20:50:29.007Z,9.27
2018-04-17T20:53:00.296Z,6.18
2018-04-17T20:55:30.339Z,6.03
2018-04-17T20:58:00.685Z,4.83
2018-04-17T21:00:31.235Z,5.70
2018-04-17T21:03:02.348Z,5.97
2018-04-17T21:05:33.936Z,6.83
2018-04-17T21:08:06.119Z,6.07
2018-04-17T21:10:36.375Z,6.80
2018-04-17T21:13:07.064Z,5.83
2018-04-17T21:15:38.427Z,7.93
2018-04-17T21:18:08.686Z,5.60
2018-04-17T21:20:39.059Z,6.50
2018-04-17T21:23:10.533Z,5.03
2018-04-17T21:25:40.855Z,6.23
2018-04-17T21:28:10.668Z,5.57
2018-04-17T21:30:40.972Z,5.75
2018-04-17T21:33:11.926Z,5.10
2018-04-17T21:35:42.149Z,6.07
2018-04-17T21:38:12.653Z,5.05
2018-04-17T21:40:43.843Z,8.45
2018-04-17T21:43:14.455Z,5.80
2018-04-17T21:45:44.747Z,5.80
2018-04-17T21:48:15.709Z,6.65
2018-04-17T21:50:46.563Z,6.00
2018-04-17T21:53:16.776Z,5.80
2018-04-17T21:55:47.479Z,8.07
2018-04-17T21:58:19.160Z,5.57
2018-04-17T22:00:51.443Z,6.50
2018-04-17T22:03:21.820Z,5.50
2018-04-17T22:05:51.815Z,5.67
2018-04-17T22:08:21.818Z,7.40
2018-04-17T22:10:51.877Z,6.80
2018-04-17T22:13:21.930Z,6.53
2018-04-17T22:15:51.975Z,7.50
2018-04-17T22:18:21.773Z,5.53
2018-04-17T22:20:54.948Z,6.00
2018-04-17T22:23:25.491Z,8.20
2018-04-17T22:25:56.408Z,7.10
2018-04-17T22:28:26.745Z,5.83
2018-04-17T22:30:57.067Z,7.30
2018-04-17T22:33:27.382Z,8.03
2018-04-17T22:35:57.398Z,7.47
2018-04-17T22:38:28.623Z,6.12
2018-04-17T22:41:02.009Z,6.13
2018-04-17T22:43:34.233Z,10.77
2018-04-17T22:46:04.197Z,6.25
2018-04-17T22:48:35.721Z,9.63
2018-04-17T22:51:06.234Z,6.40
2018-04-17T22:53:36.199Z,7.05
2018-04-17T22:56:08.374Z,7.50
2018-04-17T22:58:39.072Z,7.77
2018-04-17T23:01:09.878Z,6.53
2018-04-17T23:03:40.308Z,6.07
2018-04-17T23:06:11.011Z,8.40
2018-04-17T23:08:42.076Z,6.47
2018-04-17T23:11:13.195Z,6.70
2018-04-17T23:13:45.103Z,8.37
2018-04-17T23:16:15.495Z,7.43
2018-04-17T23:18:45.455Z,8.25
2018-04-17T23:21:16.210Z,6.97
2018-04-17T23:23:46.542Z,8.50
2018-04-17T23:26:17.597Z,7.10
2018-04-17T23:28:48.201Z,7.25
2018-04-17T23:31:18.266Z,6.97
2018-04-17T23:33:50.100Z,6.13
2018-04-17T23:36:21.776Z,7.00
2018-04-17T23:38:51.924Z,9.33
2018-04-17T23:41:22.147Z,7.00
2018-04-17T23:43:53.414Z,6.28
2018-04-17T23:46:23.779Z,7.00
2018-04-17T23:48:55.185Z,6.97
2018-04-17T23:51:24.997Z,6.60
2018-04-17T23:53:56.018Z,6.78
2018-04-17T23:56:26.393Z,7.00
2018-04-17T23:58:57.987Z,7.70
